createdAt,value
2019-03-21T00:00:00.411Z,18.00
2019-03-21T00:02:30.340Z,18.80
2019-03-21T00:05:00.348Z,13.63
2019-03-21T00:07:30.389Z,12.60
2019-03-21T00:10:32.108Z,13.60
2019-03-21T00:13:02.512Z,13.03
2019-03-21T00:15:48.629Z,12.47
2019-03-21T00:18:19.644Z,11.47
2019-03-21T00:20:49.651Z,12.17
2019-03-21T00:23:19.564Z,12.30
2019-03-21T00:25:49.836Z,13.67
2019-03-21T00:28:19.788Z,29.13
2019-03-21T00:30:49.580Z,15.27
2019-03-21T00:33:19.512Z,14.57
2019-03-21T00:35:49.429Z,16.33
2019-03-21T00:38:19.491Z,14.83
2019-03-21T00:40:49.744Z,14.57
2019-03-21T00:43:19.756Z,14.60
2019-03-21T00:45:49.670Z,14.30
2019-03-21T00:48:21.907Z,14.33
2019-03-21T00:50:51.861Z,14.33
2019-03-21T00:53:21.782Z,12.90
2019-03-21T00:55:56.372Z,12.10
2019-03-21T00:58:26.315Z,12.67
2019-03-21T01:01:03.602Z,14.43
2019-03-21T01:03:33.513Z,13.23
2019-03-21T01:06:03.627Z,13.07
2019-03-21T01:08:33.536Z,12.20
2019-03-21T01:11:03.649Z,12.33
2019-03-21T01:13:38.378Z,12.33
2019-03-21T01:16:08.588Z,12.77
2019-03-21T01:18:45.281Z,13.97
2019-03-21T01:21:15.390Z,15.13
2019-03-21T01:23:45.506Z,14.47
2019-03-21T01:26:18.660Z,14.20
2019-03-21T01:28:48.868Z,13.67
2019-03-21T01:31:18.784Z,12.20
2019-03-21T01:33:49.384Z,13.37
2019-03-21T01:36:22.443Z,13.10
2019-03-21T01:38:52.358Z,12.77
2019-03-21T01:41:22.466Z,12.37
2019-03-21T01:43:53.073Z,14.37
2019-03-21T01:46:27.708Z,13.70
2019-03-21T01:48:58.006Z,14.07
2019-03-21T01:51:27.921Z,13.67
2019-03-21T01:53:58.127Z,14.07
2019-03-21T01:56:30.596Z,14.20
2019-03-21T01:59:00.509Z,14.17
2019-03-21T02:01:30.819Z,13.57
2019-03-21T02:04:00.731Z,14.27
2019-03-21T02:06:31.822Z,14.13
2019-03-21T02:09:01.737Z,13.93
2019-03-21T02:11:31.649Z,14.50
2019-03-21T02:14:01.860Z,14.93
2019-03-21T02:16:31.770Z,14.73
2019-03-21T02:19:02.114Z,14.57
2019-03-21T02:21:32.093Z,15.03
2019-03-21T02:24:02.003Z,15.33
2019-03-21T02:26:32.113Z,15.03
2019-03-21T02:29:02.321Z,15.67
2019-03-21T02:31:32.437Z,14.67
2019-03-21T02:34:02.640Z,14.33
2019-03-21T02:36:32.555Z,13.73
2019-03-21T02:39:03.064Z,13.97
2019-03-21T02:41:33.172Z,13.20
2019-03-21T02:44:03.109Z,13.70
2019-03-21T02:46:33.190Z,13.47
2019-03-21T02:49:03.126Z,12.77
2019-03-21T02:51:33.024Z,13.63
2019-03-21T02:54:03.040Z,12.33
2019-03-21T02:56:32.945Z,12.53
2019-03-21T02:59:03.266Z,12.17
2019-03-21T03:01:33.164Z,12.20
2019-03-21T03:04:03.093Z,12.73
2019-03-21T03:06:32.992Z,11.93
2019-03-21T03:09:03.204Z,11.20
2019-03-21T03:11:33.414Z,11.40
2019-03-21T03:14:04.665Z,11.50
2019-03-21T03:16:34.711Z,11.10
2019-03-21T03:19:04.720Z,10.80
2019-03-21T03:21:34.637Z,10.77
2019-03-21T03:24:05.372Z,11.03
2019-03-21T03:26:35.347Z,10.33
2019-03-21T03:29:05.656Z,10.57
2019-03-21T03:31:35.565Z,15.90
2019-03-21T03:34:05.487Z,16.07
2019-03-21T03:36:35.982Z,16.40
2019-03-21T03:39:08.443Z,21.97
2019-03-21T03:41:38.954Z,21.60
2019-03-21T03:44:09.067Z,25.33
2019-03-21T03:46:38.988Z,26.93
2019-03-21T03:49:09.391Z,24.63
2019-03-21T03:51:39.300Z,24.37
2019-03-21T03:54:09.511Z,23.37
2019-03-21T03:56:39.614Z,20.73
2019-03-21T03:59:10.548Z,18.97
2019-03-21T04:01:40.675Z,14.50
2019-03-21T04:04:11.055Z,13.83
2019-03-21T04:06:40.939Z,13.60
2019-03-21T04:09:11.444Z,13.07
2019-03-21T04:11:41.847Z,13.47
2019-03-21T04:14:11.959Z,13.13
2019-03-21T04:16:41.883Z,12.87
2019-03-21T04:19:11.785Z,12.80
2019-03-21T04:21:41.701Z,13.20
2019-03-21T04:24:11.610Z,12.30
2019-03-21T04:26:41.821Z,12.10
2019-03-21T04:29:11.736Z,12.33
2019-03-21T04:31:41.845Z,12.40
2019-03-21T04:34:12.262Z,12.37
2019-03-21T04:36:42.165Z,11.07
2019-03-21T04:39:12.371Z,10.90
2019-03-21T04:41:45.661Z,10.90
2019-03-21T04:44:15.642Z,11.10
2019-03-21T04:46:45.552Z,11.10
2019-03-21T04:49:15.465Z,10.83
2019-03-21T04:51:45.974Z,10.70
2019-03-21T04:54:15.887Z,11.30
2019-03-21T04:56:46.091Z,11.00
2019-03-21T04:59:16.007Z,12.40
2019-03-21T05:01:45.919Z,11.97
2019-03-21T05:04:15.831Z,12.03
2019-03-21T05:06:45.940Z,12.40
2019-03-21T05:09:18.214Z,12.37
2019-03-21T05:11:48.131Z,12.03
2019-03-21T05:14:18.239Z,11.87
2019-03-21T05:16:48.544Z,12.80
2019-03-21T05:19:18.459Z,11.63
2019-03-21T05:21:48.375Z,12.70
2019-03-21T05:24:18.483Z,12.40
2019-03-21T05:26:48.396Z,12.57
2019-03-21T05:29:18.314Z,11.80
2019-03-21T05:31:48.323Z,12.63
2019-03-21T05:34:18.236Z,15.50
2019-03-21T05:36:50.341Z,18.30
2019-03-21T05:39:19.831Z,17.33
2019-03-21T05:41:49.943Z,15.87
2019-03-21T05:44:30.960Z,14.67
2019-03-21T05:47:01.072Z,13.83
2019-03-21T05:49:31.378Z,14.30
2019-03-21T05:52:01.401Z,15.10
2019-03-21T05:54:31.599Z,15.17
2019-03-21T05:57:01.514Z,21.70
2019-03-21T05:59:31.426Z,20.80
2019-03-21T06:02:01.341Z,17.43
2019-03-21T06:04:31.253Z,17.10
2019-03-21T06:07:17.584Z,14.20
2019-03-21T06:09:47.695Z,13.83
2019-03-21T06:12:17.804Z,14.27
2019-03-21T06:14:58.141Z,15.07
2019-03-21T06:17:28.739Z,13.63
2019-03-21T06:20:20.969Z,13.57
2019-03-21T06:23:22.242Z,14.03
2019-03-21T06:26:05.724Z,16.33
2019-03-21T06:28:35.634Z,14.93
2019-03-21T06:31:05.943Z,15.63
2019-03-21T06:33:35.855Z,14.73
2019-03-21T06:36:06.151Z,14.53
2019-03-21T06:38:36.073Z,13.63
2019-03-21T06:41:05.988Z,12.20
2019-03-21T06:43:36.001Z,12.33
2019-03-21T06:46:05.913Z,12.73
2019-03-21T06:48:36.186Z,12.10
2019-03-21T06:51:07.484Z,11.40
2019-03-21T06:53:37.424Z,11.77
2019-03-21T06:56:07.631Z,11.40
2019-03-21T06:58:37.546Z,10.93
2019-03-21T07:01:07.466Z,11.63
2019-03-21T07:03:37.372Z,11.67
2019-03-21T07:06:07.529Z,11.70
2019-03-21T07:08:37.500Z,10.93
2019-03-21T07:11:07.412Z,10.80
2019-03-21T07:13:37.517Z,12.10
2019-03-21T07:16:09.395Z,11.53
2019-03-21T07:18:39.408Z,11.27
2019-03-21T07:21:09.366Z,10.83
2019-03-21T07:23:39.334Z,10.07
2019-03-21T07:26:09.248Z,11.10
2019-03-21T07:28:39.161Z,11.47
2019-03-21T07:31:11.299Z,10.63
2019-03-21T07:33:40.875Z,11.30
2019-03-21T07:36:10.768Z,11.17
2019-03-21T07:38:40.683Z,10.57
2019-03-21T07:41:10.794Z,10.50
2019-03-21T07:43:40.708Z,9.90
2019-03-21T07:46:10.786Z,10.00
2019-03-21T07:48:40.729Z,9.83
2019-03-21T07:51:11.234Z,10.20
2019-03-21T07:53:41.442Z,9.83
2019-03-21T07:56:11.649Z,9.80
2019-03-21T07:58:41.856Z,9.27
2019-03-21T08:01:11.773Z,9.60
2019-03-21T08:03:41.685Z,8.40
2019-03-21T08:06:11.696Z,8.17
2019-03-21T08:08:41.609Z,7.77
2019-03-21T08:11:11.620Z,7.83
2019-03-21T08:13:41.537Z,8.57
2019-03-21T08:16:11.448Z,8.80
2019-03-21T08:18:41.494Z,8.67
2019-03-21T08:21:11.471Z,7.80
2019-03-21T08:23:41.891Z,7.80
2019-03-21T08:26:11.984Z,7.00
2019-03-21T08:28:41.900Z,7.30
2019-03-21T08:31:14.761Z,7.60
2019-03-21T08:33:45.369Z,6.67
2019-03-21T08:36:15.379Z,6.80
2019-03-21T08:38:45.497Z,6.70
2019-03-21T08:41:15.794Z,6.60
2019-03-21T08:43:45.591Z,7.20
2019-03-21T08:46:16.504Z,6.87
2019-03-21T08:48:46.430Z,6.83
2019-03-21T08:51:16.920Z,6.40
2019-03-21T08:53:47.037Z,6.80
2019-03-21T08:56:17.397Z,7.30
2019-03-21T08:58:47.840Z,6.40
2019-03-21T09:01:17.758Z,7.37
2019-03-21T09:03:47.863Z,6.37
2019-03-21T09:06:17.786Z,6.23
2019-03-21T09:08:47.574Z,6.50
2019-03-21T09:11:17.900Z,6.50
2019-03-21T09:13:47.814Z,6.10
2019-03-21T09:16:18.022Z,6.77
2019-03-21T09:18:48.034Z,6.37
2019-03-21T09:21:20.019Z,6.33
2019-03-21T09:23:49.738Z,6.10
2019-03-21T09:26:19.647Z,6.43
2019-03-21T09:28:49.441Z,6.13
2019-03-21T09:31:19.573Z,6.27
2019-03-21T09:33:50.565Z,5.90
2019-03-21T09:36:20.564Z,6.00
2019-03-21T09:38:50.985Z,5.63
2019-03-21T09:41:20.903Z,5.90
2019-03-21T09:43:50.813Z,5.80
2019-03-21T09:46:20.914Z,5.43
2019-03-21T09:48:50.829Z,6.10
2019-03-21T09:51:30.530Z,5.90
2019-03-21T09:53:52.429Z,5.50
2019-03-21T09:56:24.064Z,5.77
2019-03-21T09:58:54.220Z,5.77
2019-03-21T10:01:24.132Z,5.60
2019-03-21T10:03:54.149Z,5.73
2019-03-21T10:06:24.158Z,5.50
2019-03-21T10:08:54.069Z,6.10
2019-03-21T10:11:24.277Z,6.00
2019-03-21T10:13:54.386Z,5.83
2019-03-21T10:16:24.299Z,5.73
2019-03-21T10:18:54.214Z,5.87
2019-03-21T10:21:24.831Z,6.07
2019-03-21T10:23:56.112Z,5.60
2019-03-21T10:26:26.020Z,6.00
2019-03-21T10:28:56.889Z,5.90
2019-03-21T10:31:26.927Z,6.13
2019-03-21T10:33:56.843Z,6.07
2019-03-21T10:36:26.753Z,6.30
2019-03-21T10:38:57.876Z,6.10
2019-03-21T10:41:28.743Z,6.17
2019-03-21T10:43:59.919Z,6.20
2019-03-21T10:46:30.143Z,5.97
2019-03-21T10:49:00.069Z,5.77
2019-03-21T10:51:30.067Z,6.27
2019-03-21T10:53:59.982Z,5.40
2019-03-21T10:56:29.894Z,5.57
2019-03-21T10:58:59.808Z,5.60
2019-03-21T11:01:29.929Z,5.50
2019-03-21T11:03:59.836Z,5.50
2019-03-21T11:06:29.744Z,5.20
2019-03-21T11:08:59.951Z,5.57
2019-03-21T11:11:32.381Z,5.30
2019-03-21T11:14:02.436Z,6.00
2019-03-21T11:16:32.351Z,5.40
2019-03-21T11:19:02.362Z,5.87
2019-03-21T11:21:32.275Z,5.17
2019-03-21T11:24:02.188Z,5.40
2019-03-21T11:26:32.196Z,5.53
2019-03-21T11:29:02.118Z,5.50
2019-03-21T11:31:32.219Z,5.10
2019-03-21T11:34:02.332Z,5.63
2019-03-21T11:36:38.276Z,5.67
2019-03-21T11:39:05.695Z,5.40
2019-03-21T11:41:35.711Z,5.33
2019-03-21T11:44:06.014Z,5.13
2019-03-21T11:46:35.933Z,5.27
2019-03-21T11:49:05.947Z,5.20
2019-03-21T11:51:35.862Z,5.83
2019-03-21T11:54:05.864Z,5.50
2019-03-21T11:56:35.784Z,5.07
2019-03-21T11:59:06.085Z,4.97
2019-03-21T12:01:36.199Z,5.23
2019-03-21T12:04:06.500Z,4.70
2019-03-21T12:06:36.413Z,5.13
2019-03-21T12:09:08.590Z,4.90
2019-03-21T12:11:39.093Z,4.73
2019-03-21T12:14:09.103Z,5.53
2019-03-21T12:16:39.606Z,5.10
2019-03-21T12:19:09.528Z,5.17
2019-03-21T12:21:39.440Z,5.43
2019-03-21T12:24:09.349Z,5.57
2019-03-21T12:26:39.262Z,4.83
2019-03-21T12:29:09.174Z,5.77
2019-03-21T12:31:39.087Z,5.80
2019-03-21T12:34:09.001Z,5.40
2019-03-21T12:36:38.914Z,5.67
2019-03-21T12:39:09.943Z,5.80
2019-03-21T12:41:39.921Z,5.50
2019-03-21T12:44:10.036Z,5.20
2019-03-21T12:46:40.141Z,5.53
2019-03-21T12:49:10.054Z,5.43
2019-03-21T12:51:41.032Z,5.77
2019-03-21T12:54:11.487Z,5.70
2019-03-21T12:56:41.466Z,5.30
2019-03-21T12:59:11.378Z,5.33
2019-03-21T13:01:41.292Z,5.50
2019-03-21T13:04:11.203Z,5.53
2019-03-21T13:06:41.216Z,5.57
2019-03-21T13:09:11.129Z,5.43
2019-03-21T13:11:41.242Z,5.40
2019-03-21T13:14:11.449Z,5.50
2019-03-21T13:16:41.558Z,5.47
2019-03-21T13:19:11.569Z,4.93
2019-03-21T13:21:41.680Z,5.60
2019-03-21T13:24:11.593Z,5.23
2019-03-21T13:26:41.703Z,5.20
2019-03-21T13:29:11.617Z,5.07
2019-03-21T13:31:41.533Z,5.20
2019-03-21T13:34:11.450Z,5.63
2019-03-21T13:36:41.554Z,5.33
2019-03-21T13:39:11.570Z,5.10
2019-03-21T13:41:41.482Z,4.87
2019-03-21T13:44:11.687Z,4.83
2019-03-21T13:46:41.599Z,5.27
2019-03-21T13:49:11.514Z,4.97
2019-03-21T13:51:42.017Z,4.70
2019-03-21T13:54:11.931Z,4.57
2019-03-21T13:56:41.844Z,4.93
2019-03-21T13:59:11.757Z,4.60
2019-03-21T14:01:41.669Z,4.33
2019-03-21T14:04:11.585Z,4.83
2019-03-21T14:06:41.692Z,4.50
2019-03-21T14:09:11.608Z,4.40
2019-03-21T14:11:41.521Z,4.77
2019-03-21T14:14:11.433Z,4.50
2019-03-21T14:16:41.369Z,4.50
2019-03-21T14:19:11.456Z,4.07
2019-03-21T14:21:41.253Z,4.33
2019-03-21T14:24:11.382Z,4.87
2019-03-21T14:26:41.299Z,4.33
2019-03-21T14:29:12.831Z,3.87
2019-03-21T14:31:43.588Z,3.77
2019-03-21T14:34:13.496Z,3.47
2019-03-21T14:36:43.898Z,4.10
2019-03-21T14:39:13.811Z,4.30
2019-03-21T14:41:43.724Z,4.10
2019-03-21T14:44:13.845Z,3.87
2019-03-21T14:46:43.749Z,3.93
2019-03-21T14:49:13.666Z,4.27
2019-03-21T14:51:43.573Z,3.97
2019-03-21T14:54:13.785Z,3.93
2019-03-21T14:56:43.697Z,4.40
2019-03-21T14:59:13.611Z,4.10
2019-03-21T15:01:43.523Z,3.77
2019-03-21T15:04:13.884Z,3.87
2019-03-21T15:06:44.233Z,3.90
2019-03-21T15:09:14.152Z,4.63
2019-03-21T15:11:44.164Z,4.10
2019-03-21T15:14:14.215Z,4.30
2019-03-21T15:16:44.184Z,3.70
2019-03-21T15:19:14.296Z,3.67
2019-03-21T15:21:44.220Z,4.23
2019-03-21T15:24:14.219Z,3.90
2019-03-21T15:26:44.130Z,4.00
2019-03-21T15:29:14.241Z,4.13
2019-03-21T15:31:44.155Z,4.10
2019-03-21T15:34:14.167Z,3.93
2019-03-21T15:36:44.205Z,4.07
2019-03-21T15:39:14.191Z,3.60
2019-03-21T15:41:44.111Z,3.90
2019-03-21T15:44:14.016Z,4.10
2019-03-21T15:46:44.028Z,3.90
2019-03-21T15:49:13.945Z,3.97
2019-03-21T15:51:43.855Z,4.23
2019-03-21T15:54:13.768Z,4.40
2019-03-21T15:56:43.684Z,4.77
2019-03-21T15:59:13.602Z,4.20
2019-03-21T16:01:43.612Z,4.23
2019-03-21T16:04:13.619Z,4.40
2019-03-21T16:06:43.536Z,4.63
2019-03-21T16:09:13.839Z,4.50
2019-03-21T16:11:43.751Z,4.17
2019-03-21T16:14:13.664Z,4.87
2019-03-21T16:16:43.462Z,5.27
2019-03-21T16:19:13.687Z,6.03
2019-03-21T16:21:43.602Z,5.37
2019-03-21T16:24:13.519Z,5.60
2019-03-21T16:26:43.626Z,5.90
2019-03-21T16:29:13.537Z,6.13
2019-03-21T16:31:44.270Z,5.97
2019-03-21T16:34:15.428Z,6.10
2019-03-21T16:36:45.441Z,5.93
2019-03-21T16:39:15.753Z,5.40
2019-03-21T16:41:47.081Z,6.10
2019-03-21T16:44:18.667Z,5.77
2019-03-21T16:46:48.634Z,5.63
2019-03-21T16:49:18.545Z,5.70
2019-03-21T16:51:48.461Z,5.20
2019-03-21T16:54:18.738Z,5.40
2019-03-21T16:56:49.401Z,6.00
2019-03-21T16:59:19.378Z,5.70
2019-03-21T17:01:49.391Z,5.83
2019-03-21T17:04:19.304Z,5.83
2019-03-21T17:06:49.322Z,5.30
2019-03-21T17:09:19.229Z,5.77
2019-03-21T17:11:49.342Z,5.40
2019-03-21T17:14:19.469Z,5.20
2019-03-21T17:16:49.544Z,5.77
2019-03-21T17:19:19.480Z,6.47
2019-03-21T17:21:49.400Z,5.70
2019-03-21T17:24:28.635Z,6.30
2019-03-21T17:26:51.278Z,5.47
2019-03-21T17:29:21.193Z,16.33
2019-03-21T17:31:51.106Z,13.13
2019-03-21T17:34:21.020Z,12.43
2019-03-21T17:36:50.932Z,12.97
2019-03-21T17:39:21.140Z,9.40
2019-03-21T17:41:51.056Z,8.20
2019-03-21T17:44:21.265Z,9.40
2019-03-21T17:46:51.368Z,10.40
2019-03-21T17:49:21.580Z,7.47
2019-03-21T17:51:51.600Z,6.60
2019-03-21T17:54:21.800Z,6.43
2019-03-21T17:56:51.714Z,9.93
2019-03-21T17:59:21.627Z,17.13
2019-03-21T18:01:52.625Z,10.40
2019-03-21T18:04:22.830Z,11.43
2019-03-21T18:06:52.843Z,13.07
2019-03-21T18:09:22.754Z,12.53
2019-03-21T18:11:52.688Z,10.87
2019-03-21T18:14:22.894Z,8.53
2019-03-21T18:16:52.886Z,7.70
2019-03-21T18:19:22.803Z,6.63
2019-03-21T18:21:53.006Z,5.80
2019-03-21T18:24:22.925Z,6.33
2019-03-21T18:26:52.933Z,5.60
2019-03-21T18:29:22.847Z,5.70
2019-03-21T18:31:52.762Z,5.43
2019-03-21T18:34:22.868Z,5.87
2019-03-21T18:36:52.783Z,5.70
2019-03-21T18:39:22.794Z,5.93
2019-03-21T18:41:52.709Z,5.73
2019-03-21T18:44:22.819Z,5.57
2019-03-21T18:46:52.830Z,5.13
2019-03-21T18:49:22.844Z,5.67
2019-03-21T18:51:52.756Z,5.73
2019-03-21T18:54:22.783Z,5.53
2019-03-21T18:56:53.076Z,5.50
2019-03-21T18:59:24.081Z,5.87
2019-03-21T19:01:58.666Z,5.83
2019-03-21T19:04:28.089Z,6.80
2019-03-21T19:06:58.654Z,6.60
2019-03-21T19:09:28.635Z,7.53
2019-03-21T19:11:58.549Z,8.30
2019-03-21T19:14:28.463Z,6.63
2019-03-21T19:16:58.381Z,6.47
2019-03-21T19:19:28.785Z,7.20
2019-03-21T19:21:59.089Z,7.50
2019-03-21T19:24:29.005Z,7.67
2019-03-21T19:26:59.505Z,6.83
2019-03-21T19:29:29.419Z,7.60
2019-03-21T19:31:59.330Z,7.47
2019-03-21T19:34:29.345Z,7.60
2019-03-21T19:36:59.675Z,7.57
2019-03-21T19:39:29.663Z,7.80
2019-03-21T19:41:59.459Z,8.10
2019-03-21T19:44:29.488Z,8.67
2019-03-21T19:47:01.333Z,9.17
2019-03-21T19:49:30.987Z,10.40
2019-03-21T19:52:00.903Z,10.33
2019-03-21T19:54:30.814Z,11.73
2019-03-21T19:57:01.796Z,27.10
2019-03-21T19:59:33.395Z,25.57
2019-03-21T20:02:03.411Z,25.60
2019-03-21T20:04:33.516Z,23.30
2019-03-21T20:07:04.497Z,20.07
2019-03-21T20:09:35.117Z,17.17
2019-03-21T20:12:05.089Z,19.17
2019-03-21T20:14:35.133Z,22.27
2019-03-21T20:17:05.344Z,24.00
2019-03-21T20:19:35.256Z,32.40
2019-03-21T20:22:05.176Z,40.20
2019-03-21T20:24:35.283Z,34.43
2019-03-21T20:27:05.488Z,34.07
2019-03-21T20:29:35.403Z,37.97
2019-03-21T20:32:05.510Z,37.10
2019-03-21T20:34:35.425Z,35.33
2019-03-21T20:37:05.684Z,30.77
2019-03-21T20:39:35.660Z,31.37
2019-03-21T20:42:06.157Z,30.07
2019-03-21T20:44:35.978Z,33.33
2019-03-21T20:47:05.875Z,30.13
2019-03-21T20:49:35.986Z,31.97
2019-03-21T20:52:05.900Z,34.97
2019-03-21T20:54:36.010Z,31.00
2019-03-21T20:57:05.922Z,33.10
2019-03-21T20:59:36.134Z,31.67
2019-03-21T21:02:06.036Z,33.63
2019-03-21T21:04:36.109Z,35.57
2019-03-21T21:07:06.071Z,36.90
2019-03-21T21:09:37.238Z,36.63
2019-03-21T21:12:07.172Z,37.03
2019-03-21T21:14:37.283Z,40.57
2019-03-21T21:17:07.198Z,38.47
2019-03-21T21:19:37.112Z,35.17
2019-03-21T21:22:07.022Z,33.10
2019-03-21T21:24:37.228Z,35.47
2019-03-21T21:27:07.141Z,32.83
2019-03-21T21:29:37.547Z,32.90
2019-03-21T21:32:07.473Z,32.23
2019-03-21T21:34:37.621Z,33.33
2019-03-21T21:37:08.567Z,30.17
2019-03-21T21:39:38.476Z,32.23
2019-03-21T21:42:08.490Z,29.80
2019-03-21T21:44:38.905Z,29.73
2019-03-21T21:47:09.802Z,30.67
2019-03-21T21:49:40.018Z,33.43
2019-03-21T21:52:10.207Z,30.33
2019-03-21T21:54:40.467Z,30.40
2019-03-21T21:57:10.428Z,28.57
2019-03-21T21:59:40.341Z,28.37
2019-03-21T22:02:10.462Z,28.67
2019-03-21T22:04:40.366Z,27.30
2019-03-21T22:07:10.768Z,28.37
2019-03-21T22:09:40.780Z,29.70
2019-03-21T22:12:10.700Z,37.57
2019-03-21T22:14:40.612Z,31.03
2019-03-21T22:17:10.719Z,29.43
2019-03-21T22:19:41.673Z,28.00
2019-03-21T22:22:12.499Z,27.70
2019-03-21T22:24:43.255Z,36.03
2019-03-21T22:27:13.516Z,32.40
2019-03-21T22:29:43.528Z,32.10
2019-03-21T22:32:13.440Z,30.73
2019-03-21T22:34:43.359Z,33.60
2019-03-21T22:37:13.464Z,35.77
2019-03-21T22:39:46.150Z,39.47
2019-03-21T22:42:16.534Z,37.77
2019-03-21T22:44:46.890Z,35.57
2019-03-21T22:47:17.164Z,33.13
2019-03-21T22:49:47.358Z,31.20
2019-03-21T22:52:17.272Z,30.57
2019-03-21T22:54:47.183Z,32.57
2019-03-21T22:57:17.098Z,33.33
2019-03-21T22:59:47.009Z,33.97
2019-03-21T23:02:18.442Z,32.23
2019-03-21T23:04:49.677Z,33.00
2019-03-21T23:07:19.605Z,34.70
2019-03-21T23:09:49.965Z,35.27
2019-03-21T23:12:20.021Z,34.23
2019-03-21T23:14:50.546Z,32.93
2019-03-21T23:17:21.131Z,32.13
2019-03-21T23:19:51.473Z,31.43
2019-03-21T23:22:22.134Z,32.27
2019-03-21T23:24:52.239Z,33.20
2019-03-21T23:27:22.349Z,33.73
2019-03-21T23:29:52.807Z,35.23
2019-03-21T23:32:23.457Z,36.37
2019-03-21T23:34:53.976Z,43.70
2019-03-21T23:37:23.869Z,36.57
2019-03-21T23:39:54.200Z,36.93
2019-03-21T23:42:24.192Z,33.40
2019-03-21T23:44:54.201Z,29.70
2019-03-21T23:47:24.116Z,25.43
2019-03-21T23:49:54.123Z,26.23
2019-03-21T23:52:24.042Z,23.80
2019-03-21T23:54:53.952Z,24.93
2019-03-21T23:57:23.866Z,22.53
2019-03-21T23:59:54.269Z,22.27
